sensor_id;sensor_type;location;lat;lon;timestamp;P1;durP1;ratioP1;P2;durP2;ratioP2
72319;SDS011;60269;52.502;16.732;2023-08-30T00:01:39;5.90;;;1.83;;
72319;SDS011;60269;52.502;16.732;2023-08-30T00:05:12;7.97;;;1.90;;
72319;SDS011;60269;52.502;16.732;2023-08-30T00:08:45;8.10;;;2.08;;
72319;SDS011;60269;52.502;16.732;2023-08-30T00:12:17;5.53;;;2.00;;
72319;SDS011;60269;52.502;16.732;2023-08-30T00:15:49;5.67;;;1.50;;
72319;SDS011;60269;52.502;16.732;2023-08-30T00:19:20;7.72;;;1.83;;
72319;SDS011;60269;52.502;16.732;2023-08-30T00:22:53;6.57;;;1.50;;
72319;SDS011;60269;52.502;16.732;2023-08-30T00:26:25;6.77;;;1.90;;
72319;SDS011;60269;52.502;16.732;2023-08-30T00:29:57;6.17;;;1.50;;
72319;SDS011;60269;52.502;16.732;2023-08-30T00:33:29;6.72;;;1.50;;
72319;SDS011;60269;52.502;16.732;2023-08-30T00:37:01;7.80;;;1.70;;
72319;SDS011;60269;52.502;16.732;2023-08-30T00:40:39;7.10;;;1.67;;
72319;SDS011;60269;52.502;16.732;2023-08-30T00:44:11;6.40;;;1.50;;
72319;SDS011;60269;52.502;16.732;2023-08-30T00:47:43;5.97;;;1.40;;
72319;SDS011;60269;52.502;16.732;2023-08-30T00:51:16;5.47;;;1.50;;
72319;SDS011;60269;52.502;16.732;2023-08-30T00:54:47;7.00;;;1.77;;
72319;SDS011;60269;52.502;16.732;2023-08-30T00:58:21;7.30;;;1.67;;
72319;SDS011;60269;52.502;16.732;2023-08-30T01:01:59;6.85;;;1.63;;
72319;SDS011;60269;52.502;16.732;2023-08-30T01:05:32;5.93;;;1.60;;
72319;SDS011;60269;52.502;16.732;2023-08-30T01:09:04;7.40;;;1.80;;
72319;SDS011;60269;52.502;16.732;2023-08-30T01:12:39;8.73;;;1.92;;
72319;SDS011;60269;52.502;16.732;2023-08-30T01:16:14;7.60;;;2.30;;
72319;SDS011;60269;52.502;16.732;2023-08-30T01:20:06;6.60;;;1.90;;
72319;SDS011;60269;52.502;16.732;2023-08-30T01:23:42;8.07;;;2.17;;
72319;SDS011;60269;52.502;16.732;2023-08-30T01:27:21;6.47;;;1.45;;
72319;SDS011;60269;52.502;16.732;2023-08-30T01:30:55;9.23;;;2.47;;
72319;SDS011;60269;52.502;16.732;2023-08-30T01:34:29;5.70;;;1.70;;
72319;SDS011;60269;52.502;16.732;2023-08-30T01:38:03;4.97;;;1.10;;
72319;SDS011;60269;52.502;16.732;2023-08-30T01:41:36;6.80;;;1.00;;
72319;SDS011;60269;52.502;16.732;2023-08-30T01:45:10;8.20;;;1.20;;
72319;SDS011;60269;52.502;16.732;2023-08-30T01:48:46;4.33;;;0.87;;
72319;SDS011;60269;52.502;16.732;2023-08-30T01:52:19;5.47;;;1.20;;
72319;SDS011;60269;52.502;16.732;2023-08-30T01:55:53;4.93;;;0.90;;
72319;SDS011;60269;52.502;16.732;2023-08-30T01:59:25;4.28;;;0.93;;
72319;SDS011;60269;52.502;16.732;2023-08-30T02:02:57;4.17;;;0.63;;
72319;SDS011;60269;52.502;16.732;2023-08-30T02:06:34;3.60;;;0.70;;
72319;SDS011;60269;52.502;16.732;2023-08-30T02:10:30;5.15;;;0.90;;
72319;SDS011;60269;52.502;16.732;2023-08-30T02:14:06;3.85;;;0.75;;
72319;SDS011;60269;52.502;16.732;2023-08-30T02:17:42;3.17;;;0.60;;
72319;SDS011;60269;52.502;16.732;2023-08-30T02:21:15;5.13;;;0.55;;
72319;SDS011;60269;52.502;16.732;2023-08-30T02:24:50;4.22;;;0.50;;
72319;SDS011;60269;52.502;16.732;2023-08-30T02:28:22;4.10;;;0.52;;
72319;SDS011;60269;52.502;16.732;2023-08-30T02:31:54;4.80;;;0.70;;
72319;SDS011;60269;52.502;16.732;2023-08-30T02:35:26;4.78;;;0.80;;
72319;SDS011;60269;52.502;16.732;2023-08-30T02:38:58;3.97;;;0.88;;
72319;SDS011;60269;52.502;16.732;2023-08-30T02:42:30;4.23;;;0.70;;
72319;SDS011;60269;52.502;16.732;2023-08-30T02:46:02;4.93;;;0.80;;
72319;SDS011;60269;52.502;16.732;2023-08-30T02:49:36;7.57;;;1.10;;
72319;SDS011;60269;52.502;16.732;2023-08-30T02:53:08;3.83;;;0.70;;
72319;SDS011;60269;52.502;16.732;2023-08-30T02:56:41;4.97;;;1.07;;
72319;SDS011;60269;52.502;16.732;2023-08-30T03:00:15;5.20;;;1.00;;
72319;SDS011;60269;52.502;16.732;2023-08-30T03:03:47;3.97;;;0.90;;
72319;SDS011;60269;52.502;16.732;2023-08-30T03:07:19;7.57;;;0.90;;
72319;SDS011;60269;52.502;16.732;2023-08-30T03:10:51;5.40;;;1.10;;
72319;SDS011;60269;52.502;16.732;2023-08-30T03:14:23;5.70;;;1.00;;
72319;SDS011;60269;52.502;16.732;2023-08-30T03:17:55;2.58;;;0.52;;
72319;SDS011;60269;52.502;16.732;2023-08-30T03:21:27;4.07;;;0.80;;
72319;SDS011;60269;52.502;16.732;2023-08-30T03:24:59;4.73;;;0.90;;
72319;SDS011;60269;52.502;16.732;2023-08-30T03:28:32;4.90;;;1.00;;
72319;SDS011;60269;52.502;16.732;2023-08-30T03:32:04;6.85;;;1.10;;
72319;SDS011;60269;52.502;16.732;2023-08-30T03:35:36;4.32;;;0.90;;
72319;SDS011;60269;52.502;16.732;2023-08-30T03:39:08;5.00;;;1.13;;
72319;SDS011;60269;52.502;16.732;2023-08-30T03:42:40;5.30;;;1.10;;
72319;SDS011;60269;52.502;16.732;2023-08-30T03:46:12;4.82;;;1.15;;
72319;SDS011;60269;52.502;16.732;2023-08-30T03:49:45;4.57;;;1.05;;
72319;SDS011;60269;52.502;16.732;2023-08-30T03:53:16;6.77;;;0.70;;
72319;SDS011;60269;52.502;16.732;2023-08-30T03:56:49;6.25;;;1.35;;
72319;SDS011;60269;52.502;16.732;2023-08-30T04:00:20;4.30;;;0.70;;
72319;SDS011;60269;52.502;16.732;2023-08-30T04:03:52;4.33;;;0.83;;
72319;SDS011;60269;52.502;16.732;2023-08-30T04:07:24;2.97;;;0.60;;
72319;SDS011;60269;52.502;16.732;2023-08-30T04:10:56;3.72;;;0.80;;
72319;SDS011;60269;52.502;16.732;2023-08-30T04:14:28;3.42;;;0.60;;
72319;SDS011;60269;52.502;16.732;2023-08-30T04:18:01;5.63;;;0.73;;
72319;SDS011;60269;52.502;16.732;2023-08-30T04:21:34;3.80;;;0.50;;
72319;SDS011;60269;52.502;16.732;2023-08-30T04:25:06;2.75;;;0.50;;
72319;SDS011;60269;52.502;16.732;2023-08-30T04:28:40;4.07;;;0.60;;
72319;SDS011;60269;52.502;16.732;2023-08-30T04:32:13;3.17;;;0.50;;
72319;SDS011;60269;52.502;16.732;2023-08-30T04:35:49;3.35;;;0.47;;
72319;SDS011;60269;52.502;16.732;2023-08-30T04:39:22;3.53;;;0.50;;
72319;SDS011;60269;52.502;16.732;2023-08-30T04:42:54;5.50;;;0.70;;
72319;SDS011;60269;52.502;16.732;2023-08-30T04:46:26;3.20;;;0.73;;
72319;SDS011;60269;52.502;16.732;2023-08-30T04:49:58;4.50;;;0.70;;
72319;SDS011;60269;52.502;16.732;2023-08-30T04:53:34;3.17;;;0.68;;
72319;SDS011;60269;52.502;16.732;2023-08-30T04:57:06;3.63;;;1.10;;
72319;SDS011;60269;52.502;16.732;2023-08-30T05:00:38;3.73;;;1.00;;
72319;SDS011;60269;52.502;16.732;2023-08-30T05:04:12;4.63;;;1.17;;
72319;SDS011;60269;52.502;16.732;2023-08-30T05:07:44;3.70;;;0.98;;
72319;SDS011;60269;52.502;16.732;2023-08-30T05:11:16;5.80;;;0.90;;
72319;SDS011;60269;52.502;16.732;2023-08-30T05:14:48;3.33;;;0.77;;
72319;SDS011;60269;52.502;16.732;2023-08-30T05:18:20;4.57;;;0.88;;
72319;SDS011;60269;52.502;16.732;2023-08-30T05:21:52;4.85;;;1.30;;
72319;SDS011;60269;52.502;16.732;2023-08-30T05:25:26;4.27;;;0.83;;
72319;SDS011;60269;52.502;16.732;2023-08-30T05:28:59;2.33;;;0.53;;
72319;SDS011;60269;52.502;16.732;2023-08-30T05:32:30;3.05;;;0.60;;
72319;SDS011;60269;52.502;16.732;2023-08-30T05:36:03;3.38;;;0.60;;
72319;SDS011;60269;52.502;16.732;2023-08-30T05:39:35;2.83;;;0.60;;
72319;SDS011;60269;52.502;16.732;2023-08-30T05:43:07;2.42;;;0.35;;
72319;SDS011;60269;52.502;16.732;2023-08-30T05:46:39;2.17;;;0.50;;
72319;SDS011;60269;52.502;16.732;2023-08-30T05:50:11;3.50;;;0.80;;
72319;SDS011;60269;52.502;16.732;2023-08-30T05:53:43;3.47;;;0.70;;
72319;SDS011;60269;52.502;16.732;2023-08-30T05:57:15;3.85;;;0.50;;
72319;SDS011;60269;52.502;16.732;2023-08-30T06:00:47;5.22;;;0.50;;
72319;SDS011;60269;52.502;16.732;2023-08-30T06:04:20;2.47;;;0.50;;
72319;SDS011;60269;52.502;16.732;2023-08-30T06:07:51;1.67;;;0.30;;
72319;SDS011;60269;52.502;16.732;2023-08-30T06:11:24;2.92;;;0.57;;
72319;SDS011;60269;52.502;16.732;2023-08-30T06:14:56;2.30;;;0.50;;
72319;SDS011;60269;52.502;16.732;2023-08-30T06:18:29;2.07;;;0.40;;
72319;SDS011;60269;52.502;16.732;2023-08-30T06:22:02;2.13;;;0.50;;
72319;SDS011;60269;52.502;16.732;2023-08-30T06:25:35;2.13;;;0.50;;
72319;SDS011;60269;52.502;16.732;2023-08-30T06:29:09;2.60;;;0.43;;
72319;SDS011;60269;52.502;16.732;2023-08-30T06:32:48;3.57;;;0.53;;
72319;SDS011;60269;52.502;16.732;2023-08-30T06:36:20;1.73;;;0.40;;
72319;SDS011;60269;52.502;16.732;2023-08-30T06:39:55;1.52;;;0.40;;
72319;SDS011;60269;52.502;16.732;2023-08-30T06:43:27;2.83;;;0.70;;
72319;SDS011;60269;52.502;16.732;2023-08-30T06:46:59;2.37;;;0.50;;
72319;SDS011;60269;52.502;16.732;2023-08-30T06:50:33;2.33;;;0.30;;
72319;SDS011;60269;52.502;16.732;2023-08-30T06:54:05;1.38;;;0.38;;
72319;SDS011;60269;52.502;16.732;2023-08-30T06:57:37;1.10;;;0.30;;
72319;SDS011;60269;52.502;16.732;2023-08-30T07:01:09;1.00;;;0.30;;
72319;SDS011;60269;52.502;16.732;2023-08-30T07:04:41;1.43;;;0.40;;
72319;SDS011;60269;52.502;16.732;2023-08-30T07:08:14;1.98;;;0.40;;
72319;SDS011;60269;52.502;16.732;2023-08-30T07:11:46;3.50;;;0.50;;
72319;SDS011;60269;52.502;16.732;2023-08-30T07:15:19;2.53;;;0.33;;
72319;SDS011;60269;52.502;16.732;2023-08-30T07:18:50;2.43;;;0.40;;
72319;SDS011;60269;52.502;16.732;2023-08-30T07:22:23;1.90;;;0.52;;
72319;SDS011;60269;52.502;16.732;2023-08-30T07:25:55;1.48;;;0.40;;
72319;SDS011;60269;52.502;16.732;2023-08-30T07:29:27;2.50;;;0.40;;
72319;SDS011;60269;52.502;16.732;2023-08-30T07:32:59;3.17;;;0.50;;
72319;SDS011;60269;52.502;16.732;2023-08-30T07:36:31;1.55;;;0.40;;
72319;SDS011;60269;52.502;16.732;2023-08-30T07:40:17;2.72;;;0.50;;
72319;SDS011;60269;52.502;16.732;2023-08-30T07:43:50;1.47;;;0.30;;
72319;SDS011;60269;52.502;16.732;2023-08-30T07:47:22;1.05;;;0.20;;
72319;SDS011;60269;52.502;16.732;2023-08-30T07:50:54;1.77;;;0.40;;
72319;SDS011;60269;52.502;16.732;2023-08-30T07:54:26;1.27;;;0.30;;
72319;SDS011;60269;52.502;16.732;2023-08-30T07:57:58;1.57;;;0.40;;
72319;SDS011;60269;52.502;16.732;2023-08-30T08:01:30;1.55;;;0.40;;
72319;SDS011;60269;52.502;16.732;2023-08-30T08:05:02;1.92;;;0.40;;
72319;SDS011;60269;52.502;16.732;2023-08-30T08:08:34;1.30;;;0.37;;
72319;SDS011;60269;52.502;16.732;2023-08-30T08:12:06;1.10;;;0.30;;
72319;SDS011;60269;52.502;16.732;2023-08-30T08:15:38;3.03;;;0.30;;
72319;SDS011;60269;52.502;16.732;2023-08-30T08:19:10;1.52;;;0.32;;
72319;SDS011;60269;52.502;16.732;2023-08-30T08:22:44;2.10;;;0.43;;
72319;SDS011;60269;52.502;16.732;2023-08-30T08:26:16;2.80;;;0.43;;
72319;SDS011;60269;52.502;16.732;2023-08-30T08:29:48;4.60;;;0.50;;
72319;SDS011;60269;52.502;16.732;2023-08-30T08:33:20;2.35;;;0.50;;
72319;SDS011;60269;52.502;16.732;2023-08-30T08:36:54;2.43;;;0.50;;
72319;SDS011;60269;52.502;16.732;2023-08-30T08:40:26;3.27;;;0.93;;
72319;SDS011;60269;52.502;16.732;2023-08-30T08:44:13;1.63;;;0.32;;
72319;SDS011;60269;52.502;16.732;2023-08-30T08:47:47;1.02;;;0.30;;
72319;SDS011;60269;52.502;16.732;2023-08-30T08:51:19;1.33;;;0.30;;
72319;SDS011;60269;52.502;16.732;2023-08-30T08:54:52;2.53;;;0.30;;
72319;SDS011;60269;52.502;16.732;2023-08-30T08:58:26;2.22;;;0.50;;
72319;SDS011;60269;52.502;16.732;2023-08-30T09:02:01;3.42;;;0.40;;
72319;SDS011;60269;52.502;16.732;2023-08-30T09:05:34;1.67;;;0.43;;
72319;SDS011;60269;52.502;16.732;2023-08-30T09:09:09;1.23;;;0.30;;
72319;SDS011;60269;52.502;16.732;2023-08-30T09:12:42;3.00;;;0.40;;
72319;SDS011;60269;52.502;16.732;2023-08-30T09:16:15;1.60;;;0.35;;
72319;SDS011;60269;52.502;16.732;2023-08-30T09:19:47;1.73;;;0.40;;
72319;SDS011;60269;52.502;16.732;2023-08-30T09:23:19;1.27;;;0.40;;
72319;SDS011;60269;52.502;16.732;2023-08-30T09:26:52;4.18;;;0.60;;
72319;SDS011;60269;52.502;16.732;2023-08-30T09:30:26;2.88;;;0.30;;
72319;SDS011;60269;52.502;16.732;2023-08-30T09:33:58;1.50;;;0.40;;
72319;SDS011;60269;52.502;16.732;2023-08-30T09:37:30;1.60;;;0.33;;
72319;SDS011;60269;52.502;16.732;2023-08-30T09:41:05;1.40;;;0.32;;
72319;SDS011;60269;52.502;16.732;2023-08-30T09:44:38;2.47;;;0.50;;
72319;SDS011;60269;52.502;16.732;2023-08-30T09:48:10;3.53;;;0.60;;
72319;SDS011;60269;52.502;16.732;2023-08-30T09:51:42;2.47;;;0.50;;
72319;SDS011;60269;52.502;16.732;2023-08-30T09:55:14;1.98;;;0.60;;
72319;SDS011;60269;52.502;16.732;2023-08-30T09:58:47;1.77;;;0.45;;
72319;SDS011;60269;52.502;16.732;2023-08-30T10:02:20;2.77;;;0.73;;
72319;SDS011;60269;52.502;16.732;2023-08-30T10:05:53;9.10;;;1.30;;
72319;SDS011;60269;52.502;16.732;2023-08-30T10:09:25;3.28;;;0.60;;
72319;SDS011;60269;52.502;16.732;2023-08-30T10:12:58;3.22;;;0.60;;
72319;SDS011;60269;52.502;16.732;2023-08-30T10:16:42;3.53;;;0.90;;
72319;SDS011;60269;52.502;16.732;2023-08-30T10:20:18;6.60;;;0.90;;
72319;SDS011;60269;52.502;16.732;2023-08-30T10:23:51;4.63;;;0.63;;
72319;SDS011;60269;52.502;16.732;2023-08-30T10:27:27;4.50;;;0.73;;
72319;SDS011;60269;52.502;16.732;2023-08-30T10:31:03;7.20;;;1.00;;
72319;SDS011;60269;52.502;16.732;2023-08-30T10:34:35;3.33;;;0.90;;
72319;SDS011;60269;52.502;16.732;2023-08-30T10:38:08;2.80;;;0.60;;
72319;SDS011;60269;52.502;16.732;2023-08-30T10:41:58;2.40;;;0.60;;
72319;SDS011;60269;52.502;16.732;2023-08-30T10:45:33;4.00;;;0.70;;
72319;SDS011;60269;52.502;16.732;2023-08-30T10:49:12;3.23;;;0.60;;
72319;SDS011;60269;52.502;16.732;2023-08-30T10:52:54;3.47;;;0.70;;
72319;SDS011;60269;52.502;16.732;2023-08-30T10:56:30;3.03;;;0.80;;
72319;SDS011;60269;52.502;16.732;2023-08-30T11:03:47;2.67;;;0.63;;
72319;SDS011;60269;52.502;16.732;2023-08-30T11:07:24;3.90;;;0.50;;
72319;SDS011;60269;52.502;16.732;2023-08-30T11:11:03;2.78;;;0.68;;
72319;SDS011;60269;52.502;16.732;2023-08-30T11:14:37;2.97;;;0.50;;
72319;SDS011;60269;52.502;16.732;2023-08-30T11:18:12;2.55;;;0.63;;
72319;SDS011;60269;52.502;16.732;2023-08-30T11:21:44;3.85;;;0.75;;
72319;SDS011;60269;52.502;16.732;2023-08-30T11:25:17;3.40;;;0.68;;
72319;SDS011;60269;52.502;16.732;2023-08-30T11:28:49;3.60;;;0.50;;
72319;SDS011;60269;52.502;16.732;2023-08-30T11:32:24;1.98;;;0.47;;
72319;SDS011;60269;52.502;16.732;2023-08-30T11:35:56;2.22;;;0.50;;
72319;SDS011;60269;52.502;16.732;2023-08-30T11:39:28;2.37;;;0.50;;
72319;SDS011;60269;52.502;16.732;2023-08-30T11:43:01;2.13;;;0.40;;
72319;SDS011;60269;52.502;16.732;2023-08-30T11:46:34;3.83;;;0.30;;
72319;SDS011;60269;52.502;16.732;2023-08-30T11:50:06;1.40;;;0.45;;
72319;SDS011;60269;52.502;16.732;2023-08-30T11:53:41;2.40;;;0.50;;
72319;SDS011;60269;52.502;16.732;2023-08-30T11:57:14;2.40;;;0.40;;
72319;SDS011;60269;52.502;16.732;2023-08-30T12:00:46;1.40;;;0.43;;
72319;SDS011;60269;52.502;16.732;2023-08-30T12:04:23;1.77;;;0.50;;
72319;SDS011;60269;52.502;16.732;2023-08-30T12:07:55;2.60;;;0.60;;
72319;SDS011;60269;52.502;16.732;2023-08-30T12:11:27;3.90;;;0.60;;
72319;SDS011;60269;52.502;16.732;2023-08-30T12:15:10;3.35;;;0.70;;
72319;SDS011;60269;52.502;16.732;2023-08-30T12:18:43;2.97;;;0.70;;
72319;SDS011;60269;52.502;16.732;2023-08-30T12:22:15;1.73;;;0.50;;
72319;SDS011;60269;52.502;16.732;2023-08-30T12:26:06;2.33;;;0.60;;
72319;SDS011;60269;52.502;16.732;2023-08-30T12:29:39;2.80;;;0.73;;
72319;SDS011;60269;52.502;16.732;2023-08-30T12:33:11;2.25;;;0.32;;
72319;SDS011;60269;52.502;16.732;2023-08-30T12:36:48;2.97;;;0.50;;
72319;SDS011;60269;52.502;16.732;2023-08-30T12:40:20;2.17;;;0.30;;
72319;SDS011;60269;52.502;16.732;2023-08-30T12:43:52;4.95;;;0.57;;
72319;SDS011;60269;52.502;16.732;2023-08-30T12:47:24;2.97;;;0.47;;
72319;SDS011;60269;52.502;16.732;2023-08-30T12:50:56;2.50;;;0.70;;
72319;SDS011;60269;52.502;16.732;2023-08-30T12:54:28;2.57;;;0.70;;
72319;SDS011;60269;52.502;16.732;2023-08-30T12:58:01;2.17;;;0.45;;
72319;SDS011;60269;52.502;16.732;2023-08-30T13:01:34;3.83;;;0.60;;
72319;SDS011;60269;52.502;16.732;2023-08-30T13:05:06;2.27;;;0.67;;
72319;SDS011;60269;52.502;16.732;2023-08-30T13:08:39;1.67;;;0.50;;
72319;SDS011;60269;52.502;16.732;2023-08-30T13:12:11;1.73;;;0.50;;
72319;SDS011;60269;52.502;16.732;2023-08-30T13:15:43;3.35;;;0.50;;
72319;SDS011;60269;52.502;16.732;2023-08-30T13:19:15;4.03;;;0.90;;
72319;SDS011;60269;52.502;16.732;2023-08-30T13:22:47;2.67;;;0.60;;
72319;SDS011;60269;52.502;16.732;2023-08-30T13:26:19;1.92;;;0.43;;
72319;SDS011;60269;52.502;16.732;2023-08-30T13:29:51;2.85;;;0.77;;
72319;SDS011;60269;52.502;16.732;2023-08-30T13:33:24;1.70;;;0.57;;
72319;SDS011;60269;52.502;16.732;2023-08-30T13:36:56;4.97;;;1.10;;
72319;SDS011;60269;52.502;16.732;2023-08-30T13:40:28;2.28;;;0.57;;
72319;SDS011;60269;52.502;16.732;2023-08-30T13:44:00;3.40;;;0.60;;
72319;SDS011;60269;52.502;16.732;2023-08-30T13:47:33;3.67;;;0.90;;
72319;SDS011;60269;52.502;16.732;2023-08-30T13:51:05;3.77;;;0.80;;
72319;SDS011;60269;52.502;16.732;2023-08-30T13:54:37;3.60;;;0.80;;
72319;SDS011;60269;52.502;16.732;2023-08-30T13:58:09;3.88;;;0.80;;
72319;SDS011;60269;52.502;16.732;2023-08-30T14:01:41;5.13;;;0.80;;
72319;SDS011;60269;52.502;16.732;2023-08-30T14:05:13;6.33;;;1.20;;
72319;SDS011;60269;52.502;16.732;2023-08-30T14:08:45;4.65;;;1.30;;
72319;SDS011;60269;52.502;16.732;2023-08-30T14:12:18;4.50;;;0.82;;
72319;SDS011;60269;52.502;16.732;2023-08-30T14:15:50;4.80;;;1.10;;
72319;SDS011;60269;52.502;16.732;2023-08-30T14:19:23;6.63;;;1.47;;
72319;SDS011;60269;52.502;16.732;2023-08-30T14:22:55;3.00;;;0.82;;
72319;SDS011;60269;52.502;16.732;2023-08-30T14:26:27;6.10;;;1.48;;
72319;SDS011;60269;52.502;16.732;2023-08-30T14:30:00;3.43;;;0.87;;
72319;SDS011;60269;52.502;16.732;2023-08-30T14:33:32;4.73;;;1.20;;
72319;SDS011;60269;52.502;16.732;2023-08-30T14:37:05;4.07;;;1.00;;
72319;SDS011;60269;52.502;16.732;2023-08-30T14:40:37;4.38;;;1.00;;
72319;SDS011;60269;52.502;16.732;2023-08-30T14:44:10;3.70;;;1.10;;
72319;SDS011;60269;52.502;16.732;2023-08-30T14:47:42;5.43;;;1.30;;
72319;SDS011;60269;52.502;16.732;2023-08-30T14:51:14;3.53;;;0.82;;
72319;SDS011;60269;52.502;16.732;2023-08-30T14:54:49;4.10;;;1.08;;
72319;SDS011;60269;52.502;16.732;2023-08-30T14:58:22;3.83;;;1.00;;
72319;SDS011;60269;52.502;16.732;2023-08-30T15:01:54;4.37;;;1.03;;
72319;SDS011;60269;52.502;16.732;2023-08-30T15:05:27;5.30;;;1.60;;
72319;SDS011;60269;52.502;16.732;2023-08-30T15:08:59;5.50;;;1.10;;
72319;SDS011;60269;52.502;16.732;2023-08-30T15:12:32;4.77;;;1.10;;
72319;SDS011;60269;52.502;16.732;2023-08-30T15:16:04;4.87;;;1.67;;
72319;SDS011;60269;52.502;16.732;2023-08-30T15:19:37;6.20;;;1.85;;
72319;SDS011;60269;52.502;16.732;2023-08-30T15:23:11;7.43;;;2.05;;
72319;SDS011;60269;52.502;16.732;2023-08-30T15:26:49;5.47;;;1.80;;
72319;SDS011;60269;52.502;16.732;2023-08-30T15:30:21;5.50;;;1.70;;
72319;SDS011;60269;52.502;16.732;2023-08-30T15:33:53;7.70;;;1.60;;
72319;SDS011;60269;52.502;16.732;2023-08-30T15:37:25;6.15;;;2.22;;
72319;SDS011;60269;52.502;16.732;2023-08-30T15:40:57;5.70;;;1.60;;
72319;SDS011;60269;52.502;16.732;2023-08-30T15:44:29;5.23;;;1.43;;
72319;SDS011;60269;52.502;16.732;2023-08-30T15:48:01;7.20;;;1.83;;
72319;SDS011;60269;52.502;16.732;2023-08-30T15:51:33;6.47;;;1.63;;
72319;SDS011;60269;52.502;16.732;2023-08-30T15:55:06;6.30;;;1.53;;
72319;SDS011;60269;52.502;16.732;2023-08-30T15:58:38;5.77;;;1.50;;
72319;SDS011;60269;52.502;16.732;2023-08-30T16:02:10;5.50;;;1.67;;
72319;SDS011;60269;52.502;16.732;2023-08-30T16:05:43;5.05;;;1.27;;
72319;SDS011;60269;52.502;16.732;2023-08-30T16:09:16;3.67;;;0.70;;
72319;SDS011;60269;52.502;16.732;2023-08-30T16:12:48;4.67;;;0.87;;
72319;SDS011;60269;52.502;16.732;2023-08-30T16:16:20;2.53;;;0.77;;
72319;SDS011;60269;52.502;16.732;2023-08-30T16:19:52;2.85;;;0.60;;
72319;SDS011;60269;52.502;16.732;2023-08-30T16:23:24;3.37;;;0.73;;
72319;SDS011;60269;52.502;16.732;2023-08-30T16:26:56;4.27;;;0.90;;
72319;SDS011;60269;52.502;16.732;2023-08-30T16:30:36;4.45;;;0.60;;
72319;SDS011;60269;52.502;16.732;2023-08-30T16:34:08;3.25;;;0.90;;
72319;SDS011;60269;52.502;16.732;2023-08-30T16:37:40;2.60;;;0.53;;
72319;SDS011;60269;52.502;16.732;2023-08-30T16:41:13;3.23;;;0.80;;
72319;SDS011;60269;52.502;16.732;2023-08-30T16:44:47;3.22;;;0.70;;
72319;SDS011;60269;52.502;16.732;2023-08-30T16:48:19;5.60;;;1.40;;
72319;SDS011;60269;52.502;16.732;2023-08-30T16:51:51;4.33;;;1.07;;
72319;SDS011;60269;52.502;16.732;2023-08-30T16:55:25;6.80;;;1.17;;
72319;SDS011;60269;52.502;16.732;2023-08-30T16:58:57;5.38;;;1.15;;
72319;SDS011;60269;52.502;16.732;2023-08-30T17:02:29;7.15;;;1.20;;
72319;SDS011;60269;52.502;16.732;2023-08-30T17:06:02;4.40;;;1.00;;
72319;SDS011;60269;52.502;16.732;2023-08-30T17:09:36;3.60;;;1.10;;
72319;SDS011;60269;52.502;16.732;2023-08-30T17:13:10;5.45;;;1.10;;
72319;SDS011;60269;52.502;16.732;2023-08-30T17:16:42;3.80;;;0.80;;
72319;SDS011;60269;52.502;16.732;2023-08-30T17:20:16;5.10;;;1.10;;
72319;SDS011;60269;52.502;16.732;2023-08-30T17:23:48;3.93;;;1.10;;
72319;SDS011;60269;52.502;16.732;2023-08-30T17:27:21;4.63;;;1.30;;
72319;SDS011;60269;52.502;16.732;2023-08-30T17:30:53;5.28;;;1.05;;
72319;SDS011;60269;52.502;16.732;2023-08-30T17:34:27;5.43;;;1.40;;
72319;SDS011;60269;52.502;16.732;2023-08-30T17:38:00;3.10;;;0.80;;
72319;SDS011;60269;52.502;16.732;2023-08-30T17:41:33;3.72;;;0.90;;
72319;SDS011;60269;52.502;16.732;2023-08-30T17:45:05;4.45;;;1.20;;
72319;SDS011;60269;52.502;16.732;2023-08-30T17:48:38;5.23;;;1.07;;
72319;SDS011;60269;52.502;16.732;2023-08-30T17:52:10;7.23;;;1.10;;
72319;SDS011;60269;52.502;16.732;2023-08-30T17:55:43;4.68;;;1.10;;
72319;SDS011;60269;52.502;16.732;2023-08-30T17:59:14;5.35;;;1.25;;
72319;SDS011;60269;52.502;16.732;2023-08-30T18:02:48;7.17;;;1.80;;
72319;SDS011;60269;52.502;16.732;2023-08-30T18:06:20;7.80;;;1.57;;
72319;SDS011;60269;52.502;16.732;2023-08-30T18:09:52;5.50;;;1.48;;
72319;SDS011;60269;52.502;16.732;2023-08-30T18:13:24;5.90;;;1.30;;
72319;SDS011;60269;52.502;16.732;2023-08-30T18:16:57;9.47;;;1.63;;
72319;SDS011;60269;52.502;16.732;2023-08-30T18:20:29;6.90;;;1.47;;
72319;SDS011;60269;52.502;16.732;2023-08-30T18:27:45;6.13;;;1.35;;
72319;SDS011;60269;52.502;16.732;2023-08-30T18:31:17;5.33;;;1.30;;
72319;SDS011;60269;52.502;16.732;2023-08-30T18:34:50;5.13;;;1.27;;
72319;SDS011;60269;52.502;16.732;2023-08-30T18:38:22;4.53;;;1.08;;
72319;SDS011;60269;52.502;16.732;2023-08-30T18:41:54;7.72;;;1.92;;
72319;SDS011;60269;52.502;16.732;2023-08-30T18:45:27;5.23;;;1.43;;
72319;SDS011;60269;52.502;16.732;2023-08-30T18:48:59;5.07;;;1.33;;
72319;SDS011;60269;52.502;16.732;2023-08-30T18:52:31;6.13;;;1.45;;
72319;SDS011;60269;52.502;16.732;2023-08-30T18:56:04;5.75;;;1.25;;
72319;SDS011;60269;52.502;16.732;2023-08-30T18:59:36;5.73;;;1.80;;
72319;SDS011;60269;52.502;16.732;2023-08-30T19:03:08;6.50;;;1.40;;
72319;SDS011;60269;52.502;16.732;2023-08-30T19:06:41;7.25;;;1.58;;
72319;SDS011;60269;52.502;16.732;2023-08-30T19:10:13;5.40;;;1.42;;
72319;SDS011;60269;52.502;16.732;2023-08-30T19:13:46;5.73;;;1.70;;
72319;SDS011;60269;52.502;16.732;2023-08-30T19:17:18;8.20;;;1.85;;
72319;SDS011;60269;52.502;16.732;2023-08-30T19:20:54;6.88;;;2.08;;
72319;SDS011;60269;52.502;16.732;2023-08-30T19:24:33;8.27;;;2.33;;
72319;SDS011;60269;52.502;16.732;2023-08-30T19:28:08;9.30;;;3.03;;
72319;SDS011;60269;52.502;16.732;2023-08-30T19:31:40;8.98;;;2.90;;
72319;SDS011;60269;52.502;16.732;2023-08-30T19:35:13;9.98;;;2.67;;
72319;SDS011;60269;52.502;16.732;2023-08-30T19:38:45;7.80;;;2.43;;
72319;SDS011;60269;52.502;16.732;2023-08-30T19:42:17;9.40;;;2.53;;
72319;SDS011;60269;52.502;16.732;2023-08-30T19:46:00;42.05;;;10.63;;
72319;SDS011;60269;52.502;16.732;2023-08-30T19:49:36;142.52;;;34.78;;
72319;SDS011;60269;52.502;16.732;2023-08-30T19:53:08;72.90;;;18.90;;
72319;SDS011;60269;52.502;16.732;2023-08-30T19:56:40;55.38;;;13.48;;
72319;SDS011;60269;52.502;16.732;2023-08-30T20:00:12;32.85;;;7.45;;
72319;SDS011;60269;52.502;16.732;2023-08-30T20:03:45;14.07;;;4.10;;
72319;SDS011;60269;52.502;16.732;2023-08-30T20:07:17;14.80;;;3.87;;
72319;SDS011;60269;52.502;16.732;2023-08-30T20:10:50;11.40;;;3.30;;
72319;SDS011;60269;52.502;16.732;2023-08-30T20:14:22;8.27;;;2.35;;
72319;SDS011;60269;52.502;16.732;2023-08-30T20:17:54;7.67;;;2.17;;
72319;SDS011;60269;52.502;16.732;2023-08-30T20:21:26;10.00;;;2.90;;
72319;SDS011;60269;52.502;16.732;2023-08-30T20:24:58;10.60;;;3.08;;
72319;SDS011;60269;52.502;16.732;2023-08-30T20:28:31;9.25;;;2.60;;
72319;SDS011;60269;52.502;16.732;2023-08-30T20:32:03;10.83;;;2.47;;
72319;SDS011;60269;52.502;16.732;2023-08-30T20:35:36;8.57;;;2.25;;
72319;SDS011;60269;52.502;16.732;2023-08-30T20:39:09;7.80;;;1.80;;
72319;SDS011;60269;52.502;16.732;2023-08-30T20:42:41;8.05;;;2.13;;
72319;SDS011;60269;52.502;16.732;2023-08-30T20:46:18;5.50;;;1.57;;
72319;SDS011;60269;52.502;16.732;2023-08-30T20:49:52;8.07;;;1.95;;
72319;SDS011;60269;52.502;16.732;2023-08-30T20:57:07;8.33;;;2.00;;
72319;SDS011;60269;52.502;16.732;2023-08-30T21:00:39;7.73;;;2.23;;
72319;SDS011;60269;52.502;16.732;2023-08-30T21:04:11;7.22;;;2.05;;
72319;SDS011;60269;52.502;16.732;2023-08-30T21:07:43;6.97;;;2.22;;
72319;SDS011;60269;52.502;16.732;2023-08-30T21:11:15;8.73;;;2.57;;
72319;SDS011;60269;52.502;16.732;2023-08-30T21:14:47;6.47;;;2.08;;